Tucson International Airport
KTUS : now visible

Aeroporto :











RITROVATECI SU...

 
LOGIN :

Iscrizione | Disclaimer

   EN    FR    IT 

 









Sommario :    VFR   VFR Marginale   IFR   IFR Intensivo   IFR Molto Intensivo
Visibilità : 
Base nubi : 
>= 8 km
>= 3000ft
5 / 8 km
1000 / 3000 ft
1500m / 5 km
500 / 1000 ft
800 / 1500m
200 / 500 ft
< 800m
< 200 ft
Simboli :   Temporali  Nebbia  Neve Forte  Precipitazioni Forti  Vento > 20 kt






- Altitudine del aeroporto : 2643 ft
- Codice IATA : TUS


KTUS - Tucson International

ULTIMO METAR :
  • 272053Z 30010G18KT 10SM FEW060 19/02 A3010 RMK AO2 SLP170 T01890022 58017

METARs OBSOLETI :
  • 271953Z 30009G17KT 10SM CLR 18/02 A3012 RMK AO2 SLP177 T01830022
  • 271853Z 27011KT 10SM CLR 18/03 A3015 RMK AO2 SLP186 T01780028

TAF KTUS
Valido dal 27 a 18 ore il 28 a 18 ore UTC


271720Z 2718/2818 28005KT P6SM SKC
FM272100 31011G18KT P6SM SKC
FM280100 27006KT P6SM SKC
FM280700 15006KT P6SM SKC



MetMap, La meteo Aeronautica in un colpo d'occhio ! - Copyright ORBIFLY Dicembre 2007 - Disclaimer

ORBIFLY MET'MAP TEAM :

Programmazione e sviluppo : Alexandra Zaïnal
Concezione : Baudouin d'Aumeries
Aiuto per la programmazione : Marc-Olivier Méhu
Supporto tecnico e logistico : Manuel Goepfert
Aiuto per la traduzione : Arnaldo La Scala

Contatto : metmap@orbifly.com




FONTI E CREDITI :

   NOAA       Earth
Advisory